Time;durP1;ratioP1;P1;durP2;ratioP2;P2;SDS_P1;SDS_P2;PMS_P1;PMS_P2;Temp;Humidity;BMP_temperature;BMP_pressure;BME280_temperature;BME280_humidity;BME280_pressure;Samples;Min_cycle;Max_cycle;Signal;HPM_P1;HPM_P2
2023/09/26 00:00:19;;;;;;;19.23;2.97;;;23.70;99.90;;;;;;4977302;28;20183;-71
2023/09/26 00:02:47;;;;;;;17.17;3.23;;;24.30;99.90;;;;;;4970432;28;20616;-72
2023/09/26 00:05:14;;;;;;;12.87;3.33;;;24.10;99.90;;;;;;4988289;28;20214;-72
2023/09/26 00:07:42;;;;;;;17.37;4.13;;;24.30;99.90;;;;;;4976122;28;20190;-71
2023/09/26 00:10:12;;;;;;;18.37;3.67;;;24.70;99.90;;;;;;4975490;28;20229;-73
2023/09/26 00:12:40;;;;;;;15.33;3.63;;;24.70;99.90;;;;;;4980779;28;20198;-72
2023/09/26 00:15:08;;;;;;;11.60;3.10;;;24.20;99.90;;;;;;4976957;28;20176;-73
2023/09/26 00:17:36;;;;;;;15.30;3.33;;;24.60;99.90;;;;;;4987128;28;20675;-72
2023/09/26 00:20:45;;;;;;;16.87;4.50;;;25.70;99.90;;;;;;4979969;28;20195;-73
2023/09/26 00:22:54;;;;;;;18.30;3.60;;;26.00;99.90;;;;;;4980621;28;20245;-72
2023/09/26 00:25:22;;;;;;;15.10;3.63;;;25.90;99.90;;;;;;4983928;28;20263;-71
2023/09/26 00:27:50;;;;;;;11.73;3.07;;;26.50;99.90;;;;;;4978264;28;20621;-72
2023/09/26 00:30:19;;;;;;;13.10;3.93;;;25.70;99.90;;;;;;4992793;28;20280;-72
2023/09/26 00:32:46;;;;;;;14.13;3.63;;;25.90;99.90;;;;;;4969028;28;20188;-71
2023/09/26 00:35:13;;;;;;;15.33;3.43;;;26.20;99.90;;;;;;4992354;28;20258;-71
2023/09/26 00:37:43;;;;;;;14.57;3.33;;;25.50;99.90;;;;;;4994775;28;20181;-71
2023/09/26 00:40:15;;;;;;;13.80;3.63;;;25.40;99.90;;;;;;4994195;28;20206;-72
2023/09/26 00:42:43;;;;;;;10.93;3.43;;;25.30;99.90;;;;;;4994112;28;20588;-69
2023/09/26 00:45:11;;;;;;;14.87;3.20;;;24.80;99.90;;;;;;4991194;28;20206;-71
2023/09/26 00:47:42;;;;;;;13.20;3.40;;;24.70;99.90;;;;;;4976289;28;20649;-71
2023/09/26 00:50:14;;;;;;;15.73;3.60;;;24.60;99.90;;;;;;4994444;28;20186;-71
2023/09/26 00:52:44;;;;;;;16.83;4.10;;;24.50;99.90;;;;;;4994494;28;20539;-70
2023/09/26 00:55:14;;;;;;;16.27;3.57;;;24.40;99.90;;;;;;4974961;28;20183;-72
2023/09/26 00:57:41;;;;;;;14.73;4.27;;;24.20;99.90;;;;;;4975158;28;20183;-68
2023/09/26 01:00:12;;;;;;;12.53;3.40;;;24.40;99.90;;;;;;4957467;28;20187;-73
2023/09/26 01:02:40;;;;;;;18.57;4.17;;;24.40;99.90;;;;;;4974754;28;20908;-71
2023/09/26 01:05:08;;;;;;;13.47;3.00;;;24.60;99.90;;;;;;4983007;28;20706;-69
2023/09/26 01:07:37;;;;;;;18.40;3.77;;;24.70;99.90;;;;;;4980394;28;20194;-69
2023/09/26 01:10:07;;;;;;;17.47;3.97;;;24.60;99.90;;;;;;4981180;28;20184;-69
2023/09/26 01:12:35;;;;;;;14.63;3.67;;;24.70;99.90;;;;;;4974783;28;20187;-68
2023/09/26 01:15:03;;;;;;;15.27;4.37;;;24.60;99.90;;;;;;4973850;28;20330;-68
2023/09/26 01:17:34;;;;;;;15.43;4.33;;;24.60;99.90;;;;;;4975714;28;20543;-70
2023/09/26 01:20:02;;;;;;;13.60;3.83;;;24.50;99.90;;;;;;4974642;28;20191;-69
2023/09/26 01:22:33;;;;;;;16.40;3.80;;;24.30;99.90;;;;;;4974185;28;20175;-70
2023/09/26 01:25:01;;;;;;;12.37;4.07;;;23.80;99.90;;;;;;4973942;28;20227;-68
2023/09/26 01:27:28;;;;;;;16.60;3.97;;;23.70;99.90;;;;;;4987331;28;20277;-68
2023/09/26 01:29:55;;;;;;;19.40;6.17;;;23.60;99.90;;;;;;4993123;28;20215;-69
2023/09/26 01:32:23;;;;;;;21.87;4.20;;;23.70;99.90;;;;;;4983869;28;20242;-69
2023/09/26 01:34:51;;;;;;;25.67;4.73;;;23.90;99.90;;;;;;4974217;28;20183;-69
2023/09/26 01:37:20;;;;;;;11.67;3.27;;;23.90;99.90;;;;;;4973794;28;20648;-69
2023/09/26 01:39:47;;;;;;;14.50;3.97;;;24.30;99.90;;;;;;4973974;28;20179;-68
2023/09/26 01:42:14;;;;;;;12.30;3.03;;;24.40;99.90;;;;;;4974264;28;20667;-70
2023/09/26 01:44:42;;;;;;;14.17;3.90;;;24.80;99.90;;;;;;4973696;28;20175;-69
2023/09/26 01:47:22;;;;;;;13.87;3.90;;;25.00;99.90;;;;;;4974104;28;20526;-69
2023/09/26 01:49:49;;;;;;;16.50;3.80;;;25.20;99.90;;;;;;4956596;28;20179;-69
2023/09/26 01:52:16;;;;;;;18.73;4.50;;;25.10;99.90;;;;;;4973329;28;20191;-70
2023/09/26 01:54:44;;;;;;;23.23;4.50;;;25.00;99.90;;;;;;4974073;28;20182;-69
2023/09/26 01:57:11;;;;;;;17.93;3.80;;;;;;;;;;4974019;28;20218;-70
2023/09/26 01:59:39;;;;;;;15.20;4.20;;;24.50;99.90;;;;;;4973691;28;20187;-69
2023/09/26 02:02:06;;;;;;;23.33;4.13;;;24.50;99.90;;;;;;4973792;28;20238;-68
2023/09/26 02:04:33;;;;;;;14.20;3.53;;;24.30;99.90;;;;;;4973617;28;20176;-70
2023/09/26 02:07:00;;;;;;;15.10;3.50;;;24.30;99.90;;;;;;4973295;28;20778;-68
2023/09/26 02:09:28;;;;;;;15.87;4.23;;;24.20;99.90;;;;;;4973802;28;20282;-69
2023/09/26 02:11:55;;;;;;;16.60;3.73;;;24.10;99.90;;;;;;4973769;28;20724;-68
2023/09/26 02:14:22;;;;;;;17.17;3.47;;;23.90;99.90;;;;;;4978092;28;21560;-68
2023/09/26 02:16:50;;;;;;;17.67;4.17;;;23.80;99.90;;;;;;4973281;28;20242;-68
2023/09/26 02:19:17;;;;;;;13.67;3.77;;;23.60;99.90;;;;;;4973619;28;20179;-68
2023/09/26 02:21:44;;;;;;;18.70;3.80;;;23.40;99.90;;;;;;4974930;28;20182;-69
2023/09/26 02:24:12;;;;;;;14.37;4.00;;;23.30;99.90;;;;;;4982264;28;20231;-69
2023/09/26 02:26:39;;;;;;;12.80;3.23;;;23.40;99.90;;;;;;4973287;28;20225;-70
2023/09/26 02:29:07;;;;;;;13.77;3.77;;;23.20;99.90;;;;;;4972868;28;20608;-68
2023/09/26 02:31:34;;;;;;;12.93;3.80;;;23.50;99.90;;;;;;4979610;28;20269;-72
2023/09/26 02:34:01;;;;;;;15.27;3.80;;;23.50;99.90;;;;;;4992971;28;20704;-68
2023/09/26 02:36:29;;;;;;;17.47;3.67;;;23.60;99.90;;;;;;4992107;28;20190;-69
2023/09/26 02:38:56;;;;;;;16.47;3.50;;;23.60;99.90;;;;;;4992631;28;20178;-69
2023/09/26 02:41:24;;;;;;;14.80;3.67;;;23.80;99.90;;;;;;4992541;28;20648;-69
2023/09/26 02:43:55;;;;;;;21.53;3.60;;;23.80;99.90;;;;;;4974446;28;20221;-68
2023/09/26 02:46:23;;;;;;;21.40;4.03;;;23.90;99.90;;;;;;4992332;28;20222;-68
2023/09/26 02:48:50;;;;;;;16.80;3.60;;;24.20;99.90;;;;;;4991876;28;20185;-68
2023/09/26 02:51:18;;;;;;;14.00;3.53;;;24.20;99.90;;;;;;4991767;28;20186;-68
2023/09/26 02:53:45;;;;;;;19.47;4.10;;;24.00;99.90;;;;;;4992526;28;20175;-69
2023/09/26 02:56:13;;;;;;;12.67;3.57;;;23.70;99.90;;;;;;4992644;28;20324;-68
2023/09/26 02:58:41;;;;;;;15.80;3.33;;;23.60;99.90;;;;;;4991982;28;20189;-68
2023/09/26 03:01:08;;;;;;;17.97;3.80;;;23.40;99.90;;;;;;4977976;28;20585;-68
2023/09/26 03:03:36;;;;;;;14.23;3.70;;;23.10;99.90;;;;;;4972856;28;20536;-69
2023/09/26 03:06:03;;;;;;;21.10;3.93;;;23.10;99.90;;;;;;4972462;28;20215;-68
2023/09/26 03:08:31;;;;;;;15.57;4.60;;;23.10;99.90;;;;;;4973167;28;20527;-68
2023/09/26 03:11:02;;;;;;;11.33;3.33;;;22.90;99.90;;;;;;4984455;28;20197;-69
2023/09/26 03:13:33;;;;;;;15.30;3.67;;;22.90;99.90;;;;;;4991805;28;20209;-69
2023/09/26 03:16:02;;;;;;;12.97;3.03;;;22.90;99.90;;;;;;4992201;28;20245;-69
2023/09/26 03:18:29;;;;;;;19.27;3.83;;;23.40;99.90;;;;;;4991246;28;20198;-69
2023/09/26 03:20:56;;;;;;;19.23;3.73;;;23.50;99.90;;;;;;4991638;28;20191;-68
2023/09/26 03:23:25;;;;;;;12.90;3.50;;;23.80;99.90;;;;;;4991844;28;20436;-68
2023/09/26 03:25:52;;;;;;;11.37;3.20;;;24.40;99.90;;;;;;4974346;28;20218;-68
2023/09/26 03:28:19;;;;;;;14.17;3.60;;;25.00;99.90;;;;;;4993385;28;20178;-69
2023/09/26 03:30:47;;;;;;;22.37;4.03;;;25.20;99.90;;;;;;4995825;28;20182;-69
2023/09/26 03:33:14;;;;;;;20.87;3.73;;;24.80;99.90;;;;;;4995992;28;20190;-68
2023/09/26 03:35:42;;;;;;;14.57;3.80;;;24.60;99.90;;;;;;4994121;28;20186;-70
2023/09/26 03:38:09;;;;;;;12.60;3.03;;;24.70;99.90;;;;;;4996159;28;20183;-69
2023/09/26 03:43:58;;;;;;;16.67;3.93;;;24.80;99.90;;;;;;4993433;28;20240;-69
2023/09/26 03:46:26;;;;;;;15.70;3.23;;;25.40;99.90;;;;;;4996101;28;20292;-70
2023/09/26 03:48:53;;;;;;;17.00;3.60;;;25.70;99.90;;;;;;4995480;28;20182;-67
2023/09/26 03:51:21;;;;;;;15.70;4.00;;;25.90;99.90;;;;;;4997012;28;20262;-67
2023/09/26 03:53:48;;;;;;;15.80;3.83;;;25.70;99.90;;;;;;4993459;28;20185;-69
2023/09/26 03:56:16;;;;;;;16.80;3.20;;;25.80;99.90;;;;;;4960281;28;20183;-69
2023/09/26 03:58:44;;;;;;;11.67;3.10;;;25.70;99.90;;;;;;4969626;28;20197;-67
2023/09/26 04:01:18;;;;;;;12.07;3.70;;;25.40;99.90;;;;;;4975793;28;20262;-69
2023/09/26 04:03:49;;;;;;;10.73;3.07;;;25.40;99.90;;;;;;4975188;28;20193;-68
2023/09/26 04:06:19;;;;;;;10.20;3.13;;;25.20;99.90;;;;;;4976671;28;20254;-68
2023/09/26 04:08:46;;;;;;;18.03;3.97;;;25.00;99.90;;;;;;4995219;28;20190;-71
2023/09/26 04:11:17;;;;;;;18.10;3.93;;;24.90;99.90;;;;;;4994785;28;20289;-68
2023/09/26 04:13:45;;;;;;;16.33;3.80;;;24.60;99.90;;;;;;4995581;28;20233;-69
2023/09/26 04:16:13;;;;;;;14.63;3.33;;;24.40;99.90;;;;;;4995488;28;20369;-71
2023/09/26 04:18:40;;;;;;;14.07;3.60;;;24.80;99.90;;;;;;4989391;28;20624;-69
2023/09/26 04:21:08;;;;;;;12.67;3.30;;;25.00;99.90;;;;;;4975968;28;20270;-68
2023/09/26 04:23:36;;;;;;;16.30;3.90;;;25.40;99.90;;;;;;4975366;28;20601;-68
2023/09/26 04:26:15;;;;;;;11.30;2.67;;;25.90;99.90;;;;;;4975245;28;20273;-69
2023/09/26 04:28:48;;;;;;;12.23;3.03;;;25.90;99.90;;;;;;4978567;28;20648;-68
2023/09/26 04:31:17;;;;;;;13.87;3.00;;;25.70;99.90;;;;;;4995185;28;20266;-68
2023/09/26 04:33:45;;;;;;;11.93;3.50;;;25.50;99.90;;;;;;4994830;28;20190;-68
2023/09/26 04:36:13;;;;;;;17.30;3.67;;;25.40;99.90;;;;;;4994391;28;20261;-68
2023/09/26 04:38:41;;;;;;;18.37;3.37;;;25.40;99.90;;;;;;4992397;28;20178;-68
2023/09/26 04:41:08;;;;;;;14.40;3.17;;;25.30;99.90;;;;;;4956764;28;20190;-68
2023/09/26 04:43:36;;;;;;;18.60;3.87;;;25.20;99.90;;;;;;4958030;28;20238;-69
2023/09/26 04:46:13;;;;;;;16.40;3.47;;;25.20;99.90;;;;;;4988300;28;20222;-67
2023/09/26 04:48:41;;;;;;;17.33;3.53;;;25.20;99.90;;;;;;4989671;28;20210;-68
2023/09/26 04:51:19;;;;;;;16.40;3.43;;;25.00;99.90;;;;;;4987111;28;20195;-69
2023/09/26 04:53:47;;;;;;;12.53;3.17;;;25.30;99.90;;;;;;4983387;28;20183;-70
2023/09/26 04:56:14;;;;;;;14.17;3.70;;;25.20;99.90;;;;;;4985370;28;20191;-69
2023/09/26 04:58:41;;;;;;;13.03;3.80;;;24.90;99.90;;;;;;4979461;28;20238;-70
2023/09/26 05:01:18;;;;;;;16.10;3.97;;;24.90;99.90;;;;;;4984849;28;20174;-68
2023/09/26 05:03:46;;;;;;;18.87;3.27;;;25.00;99.90;;;;;;4993906;28;20190;-68
2023/09/26 05:06:13;;;;;;;13.67;3.20;;;24.80;99.90;;;;;;4994252;28;20683;-68
2023/09/26 05:08:41;;;;;;;16.57;3.43;;;24.40;99.90;;;;;;4992837;28;20175;-69
2023/09/26 05:11:16;;;;;;;15.43;3.27;;;24.10;99.90;;;;;;4993194;28;20233;-69
2023/09/26 05:13:44;;;;;;;11.93;3.53;;;23.90;99.90;;;;;;4993522;28;20178;-66
2023/09/26 05:16:13;;;;;;;17.37;4.13;;;23.70;99.90;;;;;;4994119;28;20270;-70
2023/09/26 05:18:40;;;;;;;11.10;3.37;;;23.70;99.90;;;;;;4993601;28;20210;-68
2023/09/26 05:21:09;;;;;;;11.07;3.37;;;23.70;99.90;;;;;;4994045;28;20183;-69
2023/09/26 05:23:37;;;;;;;14.33;3.50;;;23.70;99.90;;;;;;4976397;28;20191;-68
2023/09/26 05:26:12;;;;;;;18.97;3.73;;;23.90;99.90;;;;;;4975805;28;20226;-69
2023/09/26 05:28:40;;;;;;;14.17;3.17;;;23.70;99.90;;;;;;4993473;28;20185;-69
2023/09/26 05:31:08;;;;;;;11.37;3.50;;;23.80;99.90;;;;;;4994030;28;20216;-69
2023/09/26 05:33:36;;;;;;;9.80;3.03;;;23.60;99.90;;;;;;4976000;28;20194;-69
2023/09/26 05:36:04;;;;;;;12.10;3.00;;;23.30;99.90;;;;;;4993327;28;20690;-67
2023/09/26 05:38:31;;;;;;;15.77;4.03;;;23.30;99.90;;;;;;4987454;28;20207;-65
2023/09/26 05:40:58;;;;;;;15.37;4.10;;;23.10;99.90;;;;;;4973971;28;20187;-68
2023/09/26 05:43:30;;;;;;;12.53;3.20;;;23.20;99.90;;;;;;4974714;28;20191;-68
2023/09/26 05:45:57;;;;;;;17.83;3.83;;;23.30;99.90;;;;;;4976293;28;20223;-69
2023/09/26 05:48:28;;;;;;;18.93;3.33;;;23.40;99.90;;;;;;4973293;28;20245;-68
2023/09/26 05:51:05;;;;;;;15.00;3.23;;;23.30;99.90;;;;;;4973936;28;20242;-66
2023/09/26 05:53:32;;;;;;;13.07;3.17;;;23.00;99.90;;;;;;4974228;28;20193;-65
2023/09/26 05:56:00;;;;;;;20.83;3.50;;;22.70;99.90;;;;;;4973613;28;20193;-68
2023/09/26 05:58:27;;;;;;;14.27;3.37;;;22.40;99.90;;;;;;4978631;28;20545;-66
2023/09/26 06:00:59;;;;;;;17.67;4.00;;;22.20;99.90;;;;;;4978514;28;20187;-65
2023/09/26 06:03:26;;;;;;;17.73;3.87;;;22.10;99.90;;;;;;4975662;28;20246;-70
2023/09/26 06:05:54;;;;;;;14.37;3.50;;;22.10;99.90;;;;;;4982283;28;20257;-67
2023/09/26 06:08:22;;;;;;;17.70;3.10;;;22.00;99.90;;;;;;4975321;28;20183;-66
2023/09/26 06:10:55;;;;;;;19.50;3.70;;;22.00;99.90;;;;;;4992766;28;20213;-68
2023/09/26 06:13:23;;;;;;;15.23;3.53;;;21.80;99.90;;;;;;4992996;28;20175;-68
2023/09/26 06:15:50;;;;;;;14.70;2.93;;;21.70;99.90;;;;;;4993159;28;20182;-68
2023/09/26 06:18:17;;;;;;;13.50;2.97;;;21.50;99.90;;;;;;4973441;28;20313;-68
2023/09/26 06:20:47;;;;;;;12.00;3.10;;;21.40;99.90;;;;;;4992781;28;20197;-66
2023/09/26 06:23:15;;;;;;;14.77;4.70;;;21.30;99.90;;;;;;4992924;28;20194;-66
2023/09/26 06:25:42;;;;;;;13.67;3.87;;;21.20;99.90;;;;;;4991509;28;20312;-67
2023/09/26 06:28:09;;;;;;;15.93;3.17;;;21.10;99.90;;;;;;4992860;28;20171;-69
2023/09/26 06:30:37;;;;;;;18.30;3.30;;;21.00;99.90;;;;;;4992896;28;20182;-67
2023/09/26 06:33:05;;;;;;;15.77;3.70;;;21.00;99.90;;;;;;4992296;28;20548;-66
2023/09/26 06:35:32;;;;;;;10.93;3.07;;;21.00;99.90;;;;;;4992597;28;20190;-66
2023/09/26 06:38:00;;;;;;;17.47;4.30;;;21.00;99.90;;;;;;4992166;28;20190;-66
2023/09/26 06:40:27;;;;;;;11.40;3.07;;;21.00;99.90;;;;;;4992270;28;20193;-68
2023/09/26 06:42:56;;;;;;;17.07;3.70;;;20.90;99.90;;;;;;4990381;28;20200;-65
2023/09/26 06:45:28;;;;;;;13.87;3.87;;;20.90;99.90;;;;;;4977644;28;20708;-66
2023/09/26 06:47:55;;;;;;;11.77;3.63;;;20.80;99.90;;;;;;4972942;28;20193;-68
2023/09/26 06:50:22;;;;;;;18.30;4.00;;;20.80;99.90;;;;;;4991690;28;20183;-69
2023/09/26 06:52:50;;;;;;;12.90;3.77;;;20.70;99.90;;;;;;4987779;28;20270;-71
2023/09/26 06:55:17;;;;;;;12.70;3.13;;;20.90;99.90;;;;;;4973350;28;20183;-68
2023/09/26 06:57:44;;;;;;;19.47;3.87;;;21.20;99.90;;;;;;4976224;28;20278;-68
2023/09/26 07:00:16;;;;;;;8.27;3.30;;;21.20;99.90;;;;;;4992590;28;20640;-71
2023/09/26 07:02:45;;;;;;;17.47;3.73;;;21.00;99.90;;;;;;4987944;28;20254;-69
2023/09/26 07:05:12;;;;;;;14.50;3.63;;;21.00;99.90;;;;;;4974205;28;20188;-67
2023/09/26 07:07:40;;;;;;;19.47;3.60;;;20.90;99.90;;;;;;4972924;28;20179;-69
2023/09/26 07:10:08;;;;;;;13.87;3.17;;;20.90;99.90;;;;;;4987140;28;20189;-70
2023/09/26 07:12:35;;;;;;;10.93;3.07;;;21.10;99.90;;;;;;4986526;28;20194;-71
2023/09/26 07:15:02;;;;;;;9.90;3.00;;;21.00;99.90;;;;;;4965015;28;20571;-70
2023/09/26 07:17:30;;;;;;;14.33;3.67;;;21.10;99.90;;;;;;4976811;28;20194;-69
2023/09/26 07:20:01;;;;;;;14.70;3.43;;;20.90;99.90;;;;;;4987528;28;20220;-71
2023/09/26 07:22:28;;;;;;;14.70;3.40;;;20.80;99.90;;;;;;4972979;28;20249;-72
2023/09/26 07:24:55;;;;;;;13.77;3.67;;;20.70;99.90;;;;;;4972183;28;20246;-71
2023/09/26 07:27:24;;;;;;;14.43;3.00;;;20.60;99.90;;;;;;4971944;28;20252;-72
2023/09/26 07:29:52;;;;;;;15.90;3.80;;;20.50;99.90;;;;;;4956339;28;20207;-73
2023/09/26 07:32:19;;;;;;;12.67;3.47;;;20.40;99.90;;;;;;4972290;28;20273;-73
2023/09/26 07:34:47;;;;;;;19.50;3.30;;;20.20;99.90;;;;;;4978125;28;20187;-71
2023/09/26 07:37:14;;;;;;;13.83;3.30;;;20.10;99.90;;;;;;4975663;28;20240;-70
2023/09/26 07:39:44;;;;;;;25.80;3.77;;;20.00;99.90;;;;;;4979444;28;20202;-70
2023/09/26 07:42:11;;;;;;;15.13;3.70;;;19.90;99.90;;;;;;4971218;28;20709;-70
2023/09/26 07:44:42;;;;;;;13.83;3.53;;;19.80;99.90;;;;;;4974403;28;20703;-70
2023/09/26 07:47:09;;;;;;;29.03;3.87;;;19.70;99.90;;;;;;4991788;28;20219;-71
2023/09/26 07:49:37;;;;;;;10.17;3.20;;;19.60;99.90;;;;;;4974298;28;20237;-69
2023/09/26 07:52:05;;;;;;;20.10;3.83;;;19.60;99.90;;;;;;4991683;28;20213;-74
2023/09/26 07:54:32;;;;;;;12.60;3.40;;;19.50;99.90;;;;;;4991501;28;20182;-70
2023/09/26 07:57:00;;;;;;;16.00;3.70;;;19.50;99.90;;;;;;4991681;28;20188;-71
2023/09/26 07:59:27;;;;;;;17.13;3.60;;;19.50;99.90;;;;;;4990678;28;20183;-70
2023/09/26 08:01:54;;;;;;;9.97;3.07;;;19.50;99.90;;;;;;4991437;28;20182;-71
2023/09/26 08:04:22;;;;;;;16.50;3.67;;;19.50;99.90;;;;;;4991925;28;20176;-72
2023/09/26 08:06:49;;;;;;;17.10;3.47;;;19.50;99.90;;;;;;4980690;28;20222;-71
2023/09/26 08:09:17;;;;;;;19.47;3.70;;;19.50;99.90;;;;;;4971578;28;20187;-71
2023/09/26 08:11:45;;;;;;;24.20;4.50;;;19.50;99.90;;;;;;4972255;28;20186;-71
2023/09/26 08:14:12;;;;;;;32.17;5.37;;;19.40;99.90;;;;;;4973059;28;20187;-66
2023/09/26 08:16:39;;;;;;;15.40;3.47;;;19.40;99.90;;;;;;4958068;28;20194;-71
2023/09/26 08:19:07;;;;;;;19.83;3.77;;;19.40;99.90;;;;;;4975977;28;20198;-69
2023/09/26 08:21:34;;;;;;;10.63;3.50;;;19.40;99.90;;;;;;4975975;28;20178;-65
2023/09/26 08:24:03;;;;;;;19.17;3.10;;;19.40;99.90;;;;;;4975051;28;20219;-72
2023/09/26 08:26:30;;;;;;;17.60;3.93;;;19.30;99.90;;;;;;4975540;28;20253;-66
2023/09/26 08:28:58;;;;;;;12.20;2.80;;;19.40;99.90;;;;;;4975831;28;20664;-65
2023/09/26 08:31:25;;;;;;;18.70;3.40;;;19.30;99.90;;;;;;4975311;28;20266;-64
2023/09/26 08:33:53;;;;;;;14.53;3.23;;;19.30;99.90;;;;;;4975897;28;20641;-65
2023/09/26 08:36:21;;;;;;;11.63;3.53;;;19.30;99.90;;;;;;4975744;28;20201;-67
2023/09/26 08:38:51;;;;;;;11.83;3.23;;;19.30;99.90;;;;;;4974414;28;20194;-65
2023/09/26 08:41:19;;;;;;;12.20;3.80;;;19.30;99.90;;;;;;4975639;28;20187;-71
2023/09/26 08:43:47;;;;;;;15.07;3.50;;;19.20;99.90;;;;;;4975441;28;20191;-67
2023/09/26 08:46:14;;;;;;;10.00;3.10;;;19.20;99.90;;;;;;4975113;28;20214;-67
2023/09/26 08:48:42;;;;;;;13.23;3.50;;;19.10;99.90;;;;;;4975418;28;20561;-68
2023/09/26 08:51:10;;;;;;;16.60;5.33;;;19.10;99.90;;;;;;4975441;28;20655;-70
2023/09/26 08:53:38;;;;;;;10.33;3.27;;;19.00;99.90;;;;;;4974628;28;20179;-70
2023/09/26 08:56:07;;;;;;;14.27;3.80;;;19.00;99.90;;;;;;4975786;28;20183;-67
2023/09/26 08:58:35;;;;;;;14.60;4.60;;;19.00;99.90;;;;;;4957860;28;20640;-70
2023/09/26 09:01:03;;;;;;;17.03;3.93;;;19.10;99.90;;;;;;4958088;28;20180;-69
2023/09/26 09:03:30;;;;;;;14.30;3.90;;;19.10;99.90;;;;;;4974338;28;20190;-65
2023/09/26 09:05:58;;;;;;;14.17;3.70;;;19.10;99.90;;;;;;4977803;28;20217;-68
2023/09/26 09:08:26;;;;;;;15.50;3.37;;;18.90;99.90;;;;;;4976424;28;20390;-68
2023/09/26 09:10:58;;;;;;;14.43;3.97;;;18.80;99.90;;;;;;4976958;28;20187;-71
2023/09/26 09:13:40;;;;;;;14.17;3.90;;;18.70;99.90;;;;;;4994570;28;20215;-68
2023/09/26 09:16:15;;;;;;;12.47;4.80;;;18.60;99.90;;;;;;4993833;28;20186;-70
2023/09/26 09:18:46;;;;;;;20.73;4.27;;;18.50;99.90;;;;;;4994202;28;20182;-72
2023/09/26 09:21:30;;;;;;;18.53;4.07;;;18.30;99.90;;;;;;4993153;28;20333;-67
2023/09/26 09:23:59;;;;;;;10.83;3.70;;;18.30;99.90;;;;;;4974300;28;20235;-71
2023/09/26 09:26:31;;;;;;;17.17;3.50;;;18.20;99.90;;;;;;4956674;28;20567;-71
2023/09/26 09:29:21;;;;;;;18.53;3.93;;;18.20;99.90;;;;;;4974662;28;20185;-71
2023/09/26 09:31:49;;;;;;;18.97;4.37;;;18.10;99.90;;;;;;4957482;28;20187;-67
2023/09/26 09:34:19;;;;;;;16.40;3.67;;;18.10;99.90;;;;;;4987081;28;20201;-67
2023/09/26 09:36:47;;;;;;;14.30;3.70;;;18.00;99.90;;;;;;4992230;28;20273;-70
2023/09/26 09:39:19;;;;;;;22.93;4.00;;;18.10;99.90;;;;;;4957175;28;20245;-70
2023/09/26 09:41:49;;;;;;;16.03;3.87;;;18.10;99.90;;;;;;4974475;28;20210;-72
2023/09/26 09:44:17;;;;;;;12.03;4.00;;;18.00;99.90;;;;;;4960740;28;20221;-71
2023/09/26 09:46:50;;;;;;;10.13;3.93;;;18.10;99.90;;;;;;4982968;28;20229;-70
2023/09/26 09:49:26;;;;;;;12.60;3.33;;;18.10;99.90;;;;;;4976630;28;20186;-70
2023/09/26 09:51:57;;;;;;;19.47;3.77;;;18.10;99.90;;;;;;4985269;28;20195;-71
2023/09/26 09:54:33;;;;;;;20.93;4.30;;;18.10;99.90;;;;;;4974115;28;20191;-71
2023/09/26 09:57:12;;;;;;;13.33;3.67;;;18.00;99.90;;;;;;4974570;28;20410;-70
2023/09/26 09:59:41;;;;;;;11.53;3.47;;;18.20;99.90;;;;;;4957770;28;20193;-71
2023/09/26 10:02:12;;;;;;;12.53;4.47;;;18.20;99.90;;;;;;4975201;28;20548;-70
2023/09/26 10:04:40;;;;;;;14.00;4.30;;;18.30;99.90;;;;;;4973328;28;20243;-70
2023/09/26 10:07:13;;;;;;;15.67;4.83;;;18.20;99.90;;;;;;4957168;28;20231;-68
2023/09/26 10:09:43;;;;;;;16.90;4.97;;;18.20;99.90;;;;;;4974539;28;20215;-71
2023/09/26 10:12:13;;;;;;;20.70;3.87;;;18.00;99.90;;;;;;4984115;28;20186;-70
2023/09/26 10:14:42;;;;;;;15.70;4.73;;;17.90;99.90;;;;;;4976060;28;20666;-70
2023/09/26 10:17:10;;;;;;;13.93;4.63;;;17.80;99.90;;;;;;4994055;28;20206;-67
2023/09/26 10:19:42;;;;;;;11.83;4.20;;;17.70;99.90;;;;;;4977058;28;20660;-69
2023/09/26 10:22:20;;;;;;;18.33;6.23;;;17.60;99.90;;;;;;4994331;28;20275;-70
2023/09/26 10:24:56;;;;;;;16.57;4.37;;;17.60;99.90;;;;;;4994078;28;20288;-70
2023/09/26 10:27:45;;;;;;;15.20;4.33;;;17.50;99.90;;;;;;4991711;28;20294;-71
2023/09/26 10:30:15;;;;;;;15.17;4.93;;;17.40;99.90;;;;;;4968221;28;20191;-73
2023/09/26 10:32:47;;;;;;;11.43;3.87;;;17.40;99.90;;;;;;4992743;28;20194;-71
2023/09/26 10:35:18;;;;;;;11.87;3.63;;;17.30;99.90;;;;;;4975864;28;20197;-71
2023/09/26 10:38:23;;;;;;;14.17;4.60;;;17.30;99.90;;;;;;4973030;28;20649;-73
2023/09/26 10:40:51;;;;;;;14.63;4.10;;;17.40;99.90;;;;;;4969601;28;20560;-72
2023/09/26 10:43:19;;;;;;;16.17;4.50;;;17.60;99.90;;;;;;4985853;28;20186;-71
2023/09/26 10:45:49;;;;;;;14.93;4.10;;;17.60;99.90;;;;;;4991922;28;20214;-72
2023/09/26 10:48:21;;;;;;;13.37;4.20;;;17.60;99.90;;;;;;4992440;28;20660;-71
2023/09/26 10:50:49;;;;;;;16.63;4.27;;;17.60;99.90;;;;;;5006747;28;20189;-69
2023/09/26 10:53:19;;;;;;;13.50;5.30;;;17.60;99.90;;;;;;5011736;28;20178;-69
2023/09/26 10:55:47;;;;;;;11.43;3.40;;;17.60;99.90;;;;;;4994655;28;20562;-68
2023/09/26 10:58:23;;;;;;;15.80;4.40;;;17.60;99.90;;;;;;4973829;28;20533;-70
2023/09/26 11:00:51;;;;;;;13.60;4.03;;;17.60;99.90;;;;;;4973155;28;20175;-70
2023/09/26 11:03:19;;;;;;;14.07;5.87;;;17.50;99.90;;;;;;4973244;28;20266;-68
2023/09/26 11:05:47;;;;;;;15.87;6.03;;;17.50;99.90;;;;;;4972801;28;20322;-69
2023/09/26 11:08:17;;;;;;;15.43;4.93;;;17.50;99.90;;;;;;4973007;28;20704;-69
2023/09/26 11:10:50;;;;;;;22.43;8.73;;;17.50;99.90;;;;;;4971835;28;20192;-69
2023/09/26 11:13:24;;;;;;;18.97;8.77;;;17.50;99.90;;;;;;4975646;28;20186;-69
2023/09/26 11:15:57;;;;;;;15.47;5.43;;;17.60;99.90;;;;;;4992909;28;20193;-70
2023/09/26 11:18:30;;;;;;;14.87;5.00;;;17.60;99.90;;;;;;4973019;28;20199;-68
2023/09/26 11:21:00;;;;;;;15.17;4.40;;;17.50;99.90;;;;;;4992393;28;20182;-73
2023/09/26 11:23:41;;;;;;;18.53;6.13;;;17.60;99.90;;;;;;4958787;28;20595;-69
2023/09/26 11:26:09;;;;;;;12.23;4.60;;;17.60;99.90;;;;;;4995497;28;20217;-66
2023/09/26 11:28:38;;;;;;;12.70;4.87;;;17.60;99.90;;;;;;4991605;28;20198;-69
2023/09/26 11:31:06;;;;;;;12.30;3.90;;;17.60;99.90;;;;;;4975373;28;20245;-71
2023/09/26 11:33:34;;;;;;;9.07;4.60;;;17.60;99.90;;;;;;4992431;28;20256;-66
2023/09/26 11:36:03;;;;;;;15.10;5.90;;;17.60;99.90;;;;;;4984833;28;20187;-70
2023/09/26 11:38:31;;;;;;;24.93;7.53;;;17.60;99.90;;;;;;4991178;28;20183;-71
2023/09/26 11:40:59;;;;;;;17.73;6.60;;;17.60;99.90;;;;;;4992327;28;20187;-70
2023/09/26 11:43:28;;;;;;;19.57;6.37;;;17.60;99.90;;;;;;4989363;28;20269;-71
2023/09/26 11:46:04;;;;;;;19.03;5.60;;;17.60;99.90;;;;;;4955494;28;20227;-70
2023/09/26 11:48:33;;;;;;;19.97;5.67;;;17.60;99.90;;;;;;4975208;28;20302;-70
2023/09/26 11:51:01;;;;;;;19.47;5.23;;;17.60;99.90;;;;;;4969182;28;20186;-69
2023/09/26 11:53:29;;;;;;;18.10;6.27;;;17.60;99.90;;;;;;4980814;28;20278;-68
2023/09/26 11:56:00;;;;;;;12.30;4.20;;;17.60;99.90;;;;;;4975954;28;20198;-70
2023/09/26 11:58:28;;;;;;;15.23;4.50;;;17.60;99.90;;;;;;4976262;28;20184;-71
2023/09/26 12:00:56;;;;;;;15.87;4.67;;;17.70;99.90;;;;;;4974671;28;20191;-69
2023/09/26 12:03:24;;;;;;;16.23;5.30;;;17.70;99.90;;;;;;4975891;28;20225;-71
2023/09/26 12:05:55;;;;;;;16.47;6.27;;;17.70;99.90;;;;;;4983478;28;20223;-68
2023/09/26 12:08:23;;;;;;;21.57;5.97;;;17.80;99.90;;;;;;4978836;28;20179;-70
2023/09/26 12:10:50;;;;;;;19.67;5.73;;;17.80;99.90;;;;;;4994992;28;20187;-69
2023/09/26 12:13:19;;;;;;;12.93;5.40;;;17.70;99.90;;;;;;4978082;28;20714;-68
2023/09/26 12:15:47;;;;;;;15.33;5.80;;;17.70;99.90;;;;;;4977949;28;20190;-70
2023/09/26 12:18:14;;;;;;;14.30;5.13;;;17.70;99.90;;;;;;4994599;28;20245;-69
2023/09/26 12:20:43;;;;;;;12.60;4.50;;;17.70;99.90;;;;;;4995419;28;20204;-71
2023/09/26 12:23:13;;;;;;;15.87;4.40;;;17.80;99.90;;;;;;4976148;28;20254;-69
2023/09/26 12:25:41;;;;;;;18.93;5.40;;;17.80;99.90;;;;;;4975100;28;20239;-70
2023/09/26 12:28:09;;;;;;;16.13;4.53;;;17.70;99.90;;;;;;4958604;28;20250;-70
2023/09/26 12:30:41;;;;;;;11.80;4.83;;;17.70;99.90;;;;;;4986066;28;20191;-70
2023/09/26 12:33:09;;;;;;;9.93;3.97;;;17.80;99.90;;;;;;4992620;28;20543;-69
2023/09/26 12:35:36;;;;;;;11.37;3.80;;;17.80;99.90;;;;;;4994032;28;20210;-72
2023/09/26 12:38:05;;;;;;;14.43;4.90;;;17.80;99.90;;;;;;4994156;28;20194;-68
2023/09/26 12:40:33;;;;;;;15.00;4.43;;;17.80;99.90;;;;;;4994327;28;20555;-69
2023/09/26 12:43:02;;;;;;;12.70;5.10;;;17.80;99.90;;;;;;4961661;28;20199;-68
2023/09/26 12:45:31;;;;;;;16.43;4.80;;;17.80;99.90;;;;;;4976454;28;20211;-70
2023/09/26 12:47:58;;;;;;;13.20;4.33;;;17.70;99.90;;;;;;4996146;28;20253;-69
2023/09/26 12:50:26;;;;;;;14.20;4.57;;;17.70;99.90;;;;;;4976573;28;20174;-69